Time;durP1;ratioP1;P1;durP2;ratioP2;P2;SDS_P1;SDS_P2;PMS_P1;PMS_P2;Temp;Humidity;BMP_temperature;BMP_pressure;BME280_temperature;BME280_humidity;BME280_pressure;Samples;Min_cycle;Max_cycle;Signal;HPM_P1;HPM_P2
2021/06/06 00:01:16;;;;;;;;;;;;;;;;;;3555763;27;20351;-41
2021/06/06 00:02:57;;;;;;;;;;;;;;;;;;3556935;27;19927;-41
2021/06/06 00:04:44;;;;;;;;;;;;;;;;;;3554547;27;19969;-41
2021/06/06 00:06:24;;;;;;;;;;;;;;;;;;3557129;27;19970;-41
2021/06/06 00:08:05;;;;;;;;;;;;;;;;;;3554627;27;20382;-42
2021/06/06 00:09:46;;;;;;;;;;;;;;;;;;3556958;27;19927;-42
2021/06/06 00:11:27;;;;;;;;;;;;;;;;;;3554721;27;19927;-42
2021/06/06 00:13:08;;;;;;;;;;;;;;;;;;3556891;27;20429;-41
2021/06/06 00:14:49;;;;;;;;;;;;;;;;;;3566551;27;19934;-42
2021/06/06 00:16:30;;;;;;;;;;;;;;;;;;3554634;27;19927;-41
2021/06/06 00:18:11;;;;;;;;;;;;;;;;;;3557408;27;20438;-41
2021/06/06 00:19:52;;;;;;;;;;;;;;;;;;3554304;27;19927;-41
2021/06/06 00:21:33;;;;;;;;;;;;;;;;;;3556727;27;20497;-41
2021/06/06 00:23:14;;;;;;;;;;;;;;;;;;3554661;27;19927;-41
2021/06/06 00:24:55;;;;;;;;;;;;;;;;;;3557003;27;19927;-41
2021/06/06 00:26:36;;;;;;;;;;;;;;;;;;3556086;27;20460;-41
2021/06/06 00:28:17;;;;;;;;;;;;;;;;;;3555219;27;19977;-42
2021/06/06 00:29:58;;;;;;;;;;;;;;;;;;3555801;27;20030;-42
2021/06/06 00:31:39;;;;;;;;;;;;;;;;;;3554207;27;20044;-42
2021/06/06 00:33:20;;;;;;;;;;;;;;;;;;3556637;27;20454;-42
2021/06/06 00:35:01;;;;;;;;;;;;;;;;;;3554570;27;19954;-45
2021/06/06 00:36:42;;;;;;;;;;;;;;;;;;3555224;27;20384;-45
2021/06/06 00:38:23;;;;;;;;;;;;;;;;;;3554239;27;19933;-46
2021/06/06 00:40:04;;;;;;;;;;;;;;;;;;3555766;27;19930;-41
2021/06/06 00:41:45;;;;;;;;;;;;;;;;;;3555471;27;20453;-42
2021/06/06 00:43:26;;;;;;;;;;;;;;;;;;3554171;27;19952;-42
2021/06/06 00:45:07;;;;;;;;;;;;;;;;;;3556835;27;19931;-42
2021/06/06 00:46:47;;;;;;;;;;;;;;;;;;3554039;27;19931;-42
2021/06/06 00:48:28;;;;;;;;;;;;;;;;;;3556587;27;19970;-42
2021/06/06 00:50:09;;;;;;;;;;;;;;;;;;3555034;27;20038;-41
2021/06/06 00:51:50;;;;;;;;;;;;;;;;;;3554089;27;20021;-42
2021/06/06 00:53:31;;;;;;;;;;;;;;;;;;3555594;27;20861;-42
2021/06/06 00:55:12;;;;;;;;;;;;;;;;;;3553783;27;19961;-42
2021/06/06 00:56:53;;;;;;;;;;;;;;;;;;3556455;27;19927;-42
2021/06/06 00:58:34;;;;;;;;;;;;;;;;;;3554409;27;20017;-42
2021/06/06 01:00:15;;;;;;;;;;;;;;;;;;3553863;27;19959;-42
2021/06/06 01:01:55;;;;;;;;;;;;;;;;;;3553627;27;19927;-42
2021/06/06 01:03:36;;;;;;;;;;;;;;;;;;3556834;27;20067;-42
2021/06/06 01:05:17;;;;;;;;;;;;;;;;;;3554434;27;20022;-42
2021/06/06 01:06:58;;;;;;;;;;;;;;;;;;3553338;27;19928;-42
2021/06/06 01:08:39;;;;;;;;;;;;;;;;;;3555625;27;19933;-46
2021/06/06 01:10:20;;;;;;;;;;;;;;;;;;3554059;27;19927;-46
2021/06/06 01:12:00;;;;;;;;;;;;;;;;;;3556461;27;19979;-45
2021/06/06 01:13:41;;;;;;;;;;;;;;;;;;3558599;27;19933;-46
2021/06/06 01:15:22;;;;;;;;;;;;;;;;;;3557050;27;19927;-45
2021/06/06 01:17:03;;;;;;;;;;;;;;;;;;3554509;27;19927;-44
2021/06/06 01:18:44;;;;;;;;;;;;;;;;;;3553284;27;19927;-46
2021/06/06 01:20:25;;;;;;;;;;;;;;;;;;3556533;27;19926;-46
2021/06/06 01:22:06;;;;;;;;;;;;;;;;;;3567089;27;20033;-45
2021/06/06 01:23:47;;;;;;;;;;;;;;;;;;3561023;27;20472;-46
2021/06/06 01:25:28;;;;;;;;;;;;;;;;;;3554002;27;20047;-45
2021/06/06 01:27:09;;;;;;;;;;;;;;;;;;3556145;27;19973;-45
2021/06/06 01:28:50;;;;;;;;;;;;;;;;;;3554882;27;20013;-46
2021/06/06 01:30:30;;;;;;;;;;;;;;;;;;3554861;27;19927;-45
2021/06/06 01:32:11;;;;;;;;;;;;;;;;;;3556248;27;20382;-46
2021/06/06 01:33:52;;;;;;;;;;;;;;;;;;3553408;27;19927;-45
2021/06/06 01:35:33;;;;;;;;;;;;;;;;;;3554785;27;19927;-46
2021/06/06 01:37:14;;;;;;;;;;;;;;;;;;3553736;27;19927;-47
2021/06/06 01:38:55;;;;;;;;;;;;;;;;;;3556045;27;20410;-46
2021/06/06 01:40:36;;;;;;;;;;;;;;;;;;3553973;27;19971;-45
2021/06/06 01:42:17;;;;;;;;;;;;;;;;;;3555359;27;20030;-46
2021/06/06 01:43:58;;;;;;;;;;;;;;;;;;3555224;27;20029;-41
2021/06/06 01:45:39;;;;;;;;;;;;;;;;;;3553445;27;19926;-41
2021/06/06 01:47:20;;;;;;;;;;;;;;;;;;3555167;27;19931;-40
2021/06/06 01:49:00;;;;;;;;;;;;;;;;;;3553398;27;19983;-41
2021/06/06 01:50:41;;;;;;;;;;;;;;;;;;3555002;27;19926;-41
2021/06/06 01:52:22;;;;;;;;;;;;;;;;;;3553321;27;19927;-41
2021/06/06 01:54:03;;;;;;;;;;;;;;;;;;3556250;27;19934;-42
2021/06/06 01:55:44;;;;;;;;;;;;;;;;;;3555498;27;20025;-45
2021/06/06 01:57:25;;;;;;;;;;;;;;;;;;3552515;27;19989;-45
2021/06/06 01:59:06;;;;;;;;;;;;;;;;;;3555132;27;19927;-45
2021/06/06 02:00:46;;;;;;;;;;;;;;;;;;3553262;27;19931;-45
2021/06/06 02:02:27;;;;;;;;;;;;;;;;;;3554596;27;20027;-45
2021/06/06 02:04:08;;;;;;;;;;;;;;;;;;3553541;27;19927;-47
2021/06/06 02:05:49;;;;;;;;;;;;;;;;;;3554649;27;19927;-45
2021/06/06 02:07:30;;;;;;;;;;;;;;;;;;3553687;27;20072;-45
2021/06/06 02:09:11;;;;;;;;;;;;;;;;;;3553996;27;20372;-45
2021/06/06 02:10:52;;;;;;;;;;;;;;;;;;3555659;27;19926;-45
2021/06/06 02:12:33;;;;;;;;;;;;;;;;;;3553122;27;19927;-45
2021/06/06 02:14:14;;;;;;;;;;;;;;;;;;3554555;27;19966;-45
2021/06/06 02:15:55;;;;;;;;;;;;;;;;;;3553418;27;19988;-45
2021/06/06 02:17:36;;;;;;;;;;;;;;;;;;3554048;27;20005;-46
2021/06/06 02:19:17;;;;;;;;;;;;;;;;;;3553460;27;20083;-46
2021/06/06 02:20:58;;;;;;;;;;;;;;;;;;3554167;27;19927;-45
2021/06/06 02:22:38;;;;;;;;;;;;;;;;;;3554783;27;19934;-46
2021/06/06 02:24:19;;;;;;;;;;;;;;;;;;3553182;27;19927;-45
2021/06/06 02:26:00;;;;;;;;;;;;;;;;;;3554603;27;20363;-45
2021/06/06 02:27:41;;;;;;;;;;;;;;;;;;3552912;27;19933;-45
2021/06/06 02:29:22;;;;;;;;;;;;;;;;;;3554492;27;20029;-46
2021/06/06 02:31:03;;;;;;;;;;;;;;;;;;3553865;27;19977;-46
2021/06/06 02:32:44;;;;;;;;;;;;;;;;;;3553256;27;20061;-46
2021/06/06 02:34:25;;;;;;;;;;;;;;;;;;3554990;27;20021;-42
2021/06/06 02:36:06;;;;;;;;;;;;;;;;;;3552785;27;20026;-45
2021/06/06 02:37:47;;;;;;;;;;;;;;;;;;3555113;27;20037;-42
2021/06/06 02:39:28;;;;;;;;;;;;;;;;;;3552904;27;19950;-42
2021/06/06 02:41:09;;;;;;;;;;;;;;;;;;3555702;27;19927;-42
2021/06/06 02:42:50;;;;;;;;;;;;;;;;;;3552240;27;19927;-42
2021/06/06 02:44:31;;;;;;;;;;;;;;;;;;3554565;27;20026;-41
2021/06/06 02:46:12;;;;;;;;;;;;;;;;;;3554278;27;20357;-41
2021/06/06 02:47:53;;;;;;;;;;;;;;;;;;3552843;27;19927;-41
2021/06/06 02:49:34;;;;;;;;;;;;;;;;;;3554091;27;19926;-42
2021/06/06 02:51:15;;;;;;;;;;;;;;;;;;3553136;27;20017;-42
2021/06/06 02:52:56;;;;;;;;;;;;;;;;;;3555294;27;19930;-41
2021/06/06 02:54:37;;;;;;;;;;;;;;;;;;3553220;27;19927;-42
2021/06/06 02:56:17;;;;;;;;;;;;;;;;;;3556906;27;19974;-42
2021/06/06 02:57:58;;;;;;;;;;;;;;;;;;3553574;27;19931;-42
2021/06/06 02:59:40;;;;;;;;;;;;;;;;;;3552388;27;19972;-41
2021/06/06 03:01:21;;;;;;;;;;;;;;;;;;3555255;27;19965;-42
2021/06/06 03:03:02;;;;;;;;;;;;;;;;;;3552840;27;20033;-42
2021/06/06 03:04:42;;;;;;;;;;;;;;;;;;3554225;27;19975;-42
2021/06/06 03:06:23;;;;;;;;;;;;;;;;;;3552834;27;19927;-42
2021/06/06 03:08:04;;;;;;;;;;;;;;;;;;3555961;27;19927;-47
2021/06/06 03:09:45;;;;;;;;;;;;;;;;;;3555569;27;19950;-45
2021/06/06 03:11:26;;;;;;;;;;;;;;;;;;3556363;27;19930;-42
2021/06/06 03:13:07;;;;;;;;;;;;;;;;;;3556913;27;20010;-41
2021/06/06 03:14:48;;;;;;;;;;;;;;;;;;3555051;27;19964;-42
2021/06/06 03:16:29;;;;;;;;;;;;;;;;;;3556075;27;19938;-42
2021/06/06 03:18:10;;;;;;;;;;;;;;;;;;3555235;27;19934;-42
2021/06/06 03:19:51;;;;;;;;;;;;;;;;;;3557542;27;19927;-42
2021/06/06 03:21:32;;;;;;;;;;;;;;;;;;3554797;27;19999;-42
2021/06/06 03:23:13;;;;;;;;;;;;;;;;;;3555808;27;20014;-42
2021/06/06 03:24:54;;;;;;;;;;;;;;;;;;3557686;27;19978;-41
2021/06/06 03:26:35;;;;;;;;;;;;;;;;;;3554730;27;19934;-42
2021/06/06 03:28:16;;;;;;;;;;;;;;;;;;3557747;27;19934;-42
2021/06/06 03:29:56;;;;;;;;;;;;;;;;;;3555034;27;19931;-42
2021/06/06 03:31:38;;;;;;;;;;;;;;;;;;3558495;27;19938;-42
2021/06/06 03:33:19;;;;;;;;;;;;;;;;;;3554738;27;19993;-45
2021/06/06 03:34:59;;;;;;;;;;;;;;;;;;3556757;27;19927;-46
2021/06/06 03:36:40;;;;;;;;;;;;;;;;;;3558440;27;19927;-46
2021/06/06 03:38:21;;;;;;;;;;;;;;;;;;3555151;27;19962;-42
2021/06/06 03:40:02;;;;;;;;;;;;;;;;;;3557337;27;19984;-42
2021/06/06 03:41:43;;;;;;;;;;;;;;;;;;3555382;27;19927;-47
2021/06/06 03:43:24;;;;;;;;;;;;;;;;;;3556212;27;19927;-49
2021/06/06 03:45:05;;;;;;;;;;;;;;;;;;3554853;27;19933;-46
2021/06/06 03:46:46;;;;;;;;;;;;;;;;;;3556689;27;20299;-42
2021/06/06 03:48:27;;;;;;;;;;;;;;;;;;3556964;27;19933;-46
2021/06/06 03:50:08;;;;;;;;;;;;;;;;;;3554829;27;20029;-42
2021/06/06 03:51:49;;;;;;;;;;;;;;;;;;3557835;27;19946;-42
2021/06/06 03:53:30;;;;;;;;;;;;;;;;;;3554687;27;19933;-42
2021/06/06 03:55:11;;;;;;;;;;;;;;;;;;3556600;27;19931;-46
2021/06/06 03:56:54;;;;;;;;;;;;;;;;;;3554773;27;19926;-42
2021/06/06 03:58:34;;;;;;;;;;;;;;;;;;3556489;27;19927;-46
2021/06/06 04:00:15;;;;;;;;;;;;;;;;;;3556524;27;20026;-47
2021/06/06 04:01:56;;;;;;;;;;;;;;;;;;3554189;27;19926;-45
2021/06/06 04:03:37;;;;;;;;;;;;;;;;;;3556458;27;19974;-45
2021/06/06 04:05:18;;;;;;;;;;;;;;;;;;3554862;27;19970;-42
2021/06/06 04:06:59;;;;;;;;;;;;;;;;;;3555683;27;19927;-45
2021/06/06 04:08:40;;;;;;;;;;;;;;;;;;3555096;27;19949;-42
2021/06/06 04:10:21;;;;;;;;;;;;;;;;;;3554888;27;19927;-42
2021/06/06 04:12:02;;;;;;;;;;;;;;;;;;3556139;27;19934;-42
2021/06/06 04:13:43;;;;;;;;;;;;;;;;;;3559347;27;20403;-46
2021/06/06 04:15:24;;;;;;;;;;;;;;;;;;3563900;27;20034;-45
2021/06/06 04:17:05;;;;;;;;;;;;;;;;;;3554924;27;20019;-46
2021/06/06 04:18:46;;;;;;;;;;;;;;;;;;3555880;27;20295;-48
2021/06/06 04:20:27;;;;;;;;;;;;;;;;;;3553452;27;20338;-47
2021/06/06 04:22:08;;;;;;;;;;;;;;;;;;3557260;27;19938;-42
2021/06/06 04:23:49;;;;;;;;;;;;;;;;;;3556375;27;19931;-46
2021/06/06 04:25:30;;;;;;;;;;;;;;;;;;3554149;27;20021;-45
2021/06/06 04:27:11;;;;;;;;;;;;;;;;;;3557044;27;20348;-47
2021/06/06 04:28:52;;;;;;;;;;;;;;;;;;3554214;27;19931;-46
2021/06/06 04:30:33;;;;;;;;;;;;;;;;;;3554358;27;19927;-46
2021/06/06 04:32:15;;;;;;;;;;;;;;;;;;3554917;27;20391;-42
2021/06/06 04:33:56;;;;;;;;;;;;;;;;;;3555516;27;20451;-42
2021/06/06 04:35:38;;;;;;;;;;;;;;;;;;3556273;27;19930;-42
2021/06/06 04:37:19;;;;;;;;;;;;;;;;;;3554221;27;20387;-46
2021/06/06 04:39:00;;;;;;;;;;;;;;;;;;3557227;27;20034;-42
2021/06/06 04:40:41;;;;;;;;;;;;;;;;;;3554094;27;20025;-42
2021/06/06 04:42:22;;;;;;;;;;;;;;;;;;3554459;27;19962;-42
2021/06/06 04:44:03;;;;;;;;;;;;;;;;;;3554187;27;19933;-42
2021/06/06 04:45:44;;;;;;;;;;;;;;;;;;3555763;27;19934;-42
2021/06/06 04:47:25;;;;;;;;;;;;;;;;;;3556305;27;20026;-42
2021/06/06 04:49:06;;;;;;;;;;;;;;;;;;3554820;27;20087;-42
2021/06/06 04:50:46;;;;;;;;;;;;;;;;;;3556956;27;19978;-45
2021/06/06 04:52:35;;;;;;;;;;;;;;;;;;3554024;27;19931;-45
2021/06/06 04:54:16;;;;;;;;;;;;;;;;;;3555812;27;19931;-42
2021/06/06 04:55:58;;;;;;;;;;;;;;;;;;3554581;27;19931;-42
2021/06/06 04:57:39;;;;;;;;;;;;;;;;;;3556383;27;19934;-42
2021/06/06 04:59:20;;;;;;;;;;;;;;;;;;3556429;27;19931;-42
2021/06/06 05:01:01;;;;;;;;;;;;;;;;;;3554286;27;20339;-42
2021/06/06 05:02:42;;;;;;;;;;;;;;;;;;3556635;27;19961;-42
2021/06/06 05:04:23;;;;;;;;;;;;;;;;;;3554000;27;20009;-42
2021/06/06 05:06:04;;;;;;;;;;;;;;;;;;3556622;27;20021;-42
2021/06/06 05:07:45;;;;;;;;;;;;;;;;;;3553843;27;19974;-42
2021/06/06 05:09:26;;;;;;;;;;;;;;;;;;3556501;27;19935;-42
2021/06/06 05:11:07;;;;;;;;;;;;;;;;;;3555280;27;20388;-42
2021/06/06 05:12:47;;;;;;;;;;;;;;;;;;3554848;27;20023;-42
2021/06/06 05:14:28;;;;;;;;;;;;;;;;;;3553904;27;19934;-42
2021/06/06 05:16:09;;;;;;;;;;;;;;;;;;3553597;27;19927;-42
2021/06/06 05:17:50;;;;;;;;;;;;;;;;;;3555359;27;20017;-45
2021/06/06 05:19:31;;;;;;;;;;;;;;;;;;3554010;27;19934;-45
2021/06/06 05:21:12;;;;;;;;;;;;;;;;;;3556541;27;20307;-45
2021/06/06 05:22:53;;;;;;;;;;;;;;;;;;3554701;27;19934;-45
2021/06/06 05:24:34;;;;;;;;;;;;;;;;;;3555136;27;20018;-46
2021/06/06 05:26:15;;;;;;;;;;;;;;;;;;3555705;27;20014;-45
2021/06/06 05:27:57;;;;;;;;;;;;;;;;;;3553514;27;19957;-45
2021/06/06 05:29:38;;;;;;;;;;;;;;;;;;3556328;27;20022;-45
2021/06/06 05:31:20;;;;;;;;;;;;;;;;;;3553094;27;20188;-45
2021/06/06 05:33:01;;;;;;;;;;;;;;;;;;3555838;27;20295;-42
2021/06/06 05:34:43;;;;;;;;;;;;;;;;;;3554101;27;19934;-42
2021/06/06 05:36:24;;;;;;;;;;;;;;;;;;3554424;27;19974;-42
2021/06/06 05:38:05;;;;;;;;;;;;;;;;;;3556359;27;19937;-42
2021/06/06 05:39:45;;;;;;;;;;;;;;;;;;3553530;27;20037;-42
2021/06/06 05:41:26;;;;;;;;;;;;;;;;;;3554866;27;19931;-43
2021/06/06 05:43:07;;;;;;;;;;;;;;;;;;3553840;27;20152;-45
2021/06/06 05:44:48;;;;;;;;;;;;;;;;;;3555885;27;20014;-46
2021/06/06 05:46:29;;;;;;;;;;;;;;;;;;3553471;27;19927;-43
2021/06/06 05:48:10;;;;;;;;;;;;;;;;;;3554946;27;19959;-42
2021/06/06 05:49:51;;;;;;;;;;;;;;;;;;3554722;27;19927;-42
2021/06/06 05:51:32;;;;;;;;;;;;;;;;;;3553233;27;20017;-42
2021/06/06 05:53:13;;;;;;;;;;;;;;;;;;3555190;27;19931;-42
2021/06/06 05:54:54;;;;;;;;;;;;;;;;;;3553532;27;20496;-45
2021/06/06 05:56:34;;;;;;;;;;;;;;;;;;3555685;27;19938;-45
2021/06/06 05:58:15;;;;;;;;;;;;;;;;;;3553719;27;19927;-43
2021/06/06 05:59:56;;;;;;;;;;;;;;;;;;3557230;27;19974;-45
2021/06/06 06:01:37;;;;;;;;;;;;;;;;;;3553540;27;19926;-45
2021/06/06 06:03:18;;;;;;;;;;;;;;;;;;3553228;27;19930;-42
2021/06/06 06:04:59;;;;;;;;;;;;;;;;;;3556003;27;19933;-42
2021/06/06 06:06:40;;;;;;;;;;;;;;;;;;3553098;27;19927;-42
2021/06/06 06:08:21;;;;;;;;;;;;;;;;;;3555919;27;19974;-42
2021/06/06 06:10:02;;;;;;;;;;;;;;;;;;3553413;27;19970;-42
2021/06/06 06:11:43;;;;;;;;;;;;;;;;;;3554758;27;20009;-42
2021/06/06 06:13:24;;;;;;;;;;;;;;;;;;3553934;27;20191;-42
2021/06/06 06:15:05;;;;;;;;;;;;;;;;;;3554248;27;19967;-42
2021/06/06 06:16:46;;;;;;;;;;;;;;;;;;3555883;27;20413;-43
2021/06/06 06:18:26;;;;;;;;;;;;;;;;;;3553375;27;19927;-43
2021/06/06 06:20:07;;;;;;;;;;;;;;;;;;3553353;27;19966;-42
2021/06/06 06:21:48;;;;;;;;;;;;;;;;;;3553256;27;19931;-46
2021/06/06 06:23:29;;;;;;;;;;;;;;;;;;3554464;27;20407;-46
2021/06/06 06:25:10;;;;;;;;;;;;;;;;;;3554102;27;19927;-45
2021/06/06 06:26:51;;;;;;;;;;;;;;;;;;3554669;27;20017;-45
2021/06/06 06:28:32;;;;;;;;;;;;;;;;;;3557507;27;20067;-46
2021/06/06 06:30:13;;;;;;;;;;;;;;;;;;3553339;27;19962;-47
2021/06/06 06:31:54;;;;;;;;;;;;;;;;;;3555636;27;19927;-45
2021/06/06 06:33:35;;;;;;;;;;;;;;;;;;3552932;27;19934;-46
2021/06/06 06:35:16;;;;;;;;;;;;;;;;;;3554944;27;19959;-43
2021/06/06 06:36:57;;;;;;;;;;;;;;;;;;3552565;27;19933;-43
2021/06/06 06:38:38;;;;;;;;;;;;;;;;;;3554799;27;19931;-43
2021/06/06 06:40:19;;;;;;;;;;;;;;;;;;3556174;27;19927;-46
2021/06/06 06:42:00;;;;;;;;;;;;;;;;;;3552677;27;19994;-47
2021/06/06 06:43:41;;;;;;;;;;;;;;;;;;3555237;27;19982;-43
2021/06/06 06:45:22;;;;;;;;;;;;;;;;;;3553306;27;19934;-43
2021/06/06 06:47:03;;;;;;;;;;;;;;;;;;3555478;27;19934;-45
2021/06/06 06:48:43;;;;;;;;;;;;;;;;;;3552883;27;20288;-45
2021/06/06 06:50:24;;;;;;;;;;;;;;;;;;3554185;27;19927;-43
2021/06/06 06:52:05;;;;;;;;;;;;;;;;;;3554999;27;20018;-45
2021/06/06 06:53:47;;;;;;;;;;;;;;;;;;3552326;27;19934;-43
2021/06/06 06:55:28;;;;;;;;;;;;;;;;;;3554358;27;19972;-45
2021/06/06 06:57:09;;;;;;;;;;;;;;;;;;3552901;27;20384;-46
2021/06/06 06:58:49;;;;;;;;;;;;;;;;;;3555471;27;19934;-45
2021/06/06 07:00:30;;;;;;;;;;;;;;;;;;3552307;27;19971;-45
2021/06/06 07:02:15;;;;;;;;;;;;;;;;;;3552218;27;19927;-46
2021/06/06 07:03:57;;;;;;;;;;;;;;;;;;3554092;27;19926;-46
2021/06/06 07:05:38;;;;;;;;;;;;;;;;;;3552955;27;20021;-43
2021/06/06 07:07:19;;;;;;;;;;;;;;;;;;3555163;27;19973;-43
2021/06/06 07:09:00;;;;;;;;;;;;;;;;;;3552660;27;20041;-43
2021/06/06 07:10:41;;;;;;;;;;;;;;;;;;3553793;27;19927;-43
2021/06/06 07:12:22;;;;;;;;;;;;;;;;;;3553449;27;20368;-43
2021/06/06 07:14:03;;;;;;;;;;;;;;;;;;3553894;27;19933;-44
2021/06/06 07:15:44;;;;;;;;;;;;;;;;;;3554046;27;20022;-46
2021/06/06 07:17:25;;;;;;;;;;;;;;;;;;3552356;27;19950;-47
2021/06/06 07:19:06;;;;;;;;;;;;;;;;;;3555098;27;20017;-46
2021/06/06 07:20:47;;;;;;;;;;;;;;;;;;3552737;27;19970;-46
2021/06/06 07:22:28;;;;;;;;;;;;;;;;;;3553726;27;19942;-45
2021/06/06 07:24:09;;;;;;;;;;;;;;;;;;3553034;27;19952;-45
2021/06/06 07:25:50;;;;;;;;;;;;;;;;;;3555087;27;20311;-45
2021/06/06 07:27:32;;;;;;;;;;;;;;;;;;3552945;27;19927;-46
2021/06/06 07:29:13;;;;;;;;;;;;;;;;;;3552474;27;20417;-46
2021/06/06 07:30:54;;;;;;;;;;;;;;;;;;3554199;27;19977;-45
2021/06/06 07:32:35;;;;;;;;;;;;;;;;;;3552732;27;19981;-45
2021/06/06 07:34:16;;;;;;;;;;;;;;;;;;3553657;27;19927;-44
2021/06/06 07:35:57;;;;;;;;;;;;;;;;;;3552591;27;19966;-44
2021/06/06 07:37:38;;;;;;;;;;;;;;;;;;3554940;27;19927;-46
2021/06/06 07:39:19;;;;;;;;;;;;;;;;;;3555110;27;20074;-46
2021/06/06 07:41:00;;;;;;;;;;;;;;;;;;3552378;27;19971;-48
2021/06/06 07:42:41;;;;;;;;;;;;;;;;;;3554064;27;19931;-47
2021/06/06 07:44:22;;;;;;;;;;;;;;;;;;3552349;27;19927;-47
2021/06/06 07:46:04;;;;;;;;;;;;;;;;;;3553556;27;19970;-46
2021/06/06 07:47:45;;;;;;;;;;;;;;;;;;3552406;27;20029;-45
2021/06/06 07:49:26;;;;;;;;;;;;;;;;;;3553591;27;20360;-44
2021/06/06 07:51:07;;;;;;;;;;;;;;;;;;3554188;27;19962;-45
2021/06/06 07:52:48;;;;;;;;;;;;;;;;;;3552743;27;20000;-45
2021/06/06 07:54:29;;;;;;;;;;;;;;;;;;3552368;27;19927;-44
2021/06/06 07:56:10;;;;;;;;;;;;;;;;;;3554711;27;19973;-44
2021/06/06 07:57:51;;;;;;;;;;;;;;;;;;3555943;27;19931;-44
2021/06/06 07:59:33;;;;;;;;;;;;;;;;;;3554639;27;19972;-44
2021/06/06 08:01:14;;;;;;;;;;;;;;;;;;3555664;27;19933;-44
2021/06/06 08:02:55;;;;;;;;;;;;;;;;;;3556508;27;19927;-46
2021/06/06 08:04:36;;;;;;;;;;;;;;;;;;3554531;27;19927;-45
2021/06/06 08:06:17;;;;;;;;;;;;;;;;;;3557532;27;20319;-45
2021/06/06 08:07:58;;;;;;;;;;;;;;;;;;3554354;27;20434;-46
2021/06/06 08:09:39;;;;;;;;;;;;;;;;;;3557385;27;19931;-46
2021/06/06 08:11:20;;;;;;;;;;;;;;;;;;3554765;27;19975;-45
2021/06/06 08:13:01;;;;;;;;;;;;;;;;;;3554613;27;20015;-45
2021/06/06 08:14:42;;;;;;;;;;;;;;;;;;3567234;27;19946;-47
2021/06/06 08:16:23;;;;;;;;;;;;;;;;;;3555166;27;20017;-45
2021/06/06 08:18:06;;;;;;;;;;;;;;;;;;3555214;27;19934;-48
2021/06/06 08:19:47;;;;;;;;;;;;;;;;;;3554529;27;19966;-46
2021/06/06 08:21:28;;;;;;;;;;;;;;;;;;3558446;27;20284;-45
2021/06/06 08:23:10;;;;;;;;;;;;;;;;;;3554640;27;20007;-46
2021/06/06 08:24:51;;;;;;;;;;;;;;;;;;3557192;27;19958;-45
2021/06/06 08:26:31;;;;;;;;;;;;;;;;;;3554791;27;20447;-46
2021/06/06 08:28:12;;;;;;;;;;;;;;;;;;3556329;27;19968;-46
2021/06/06 08:29:54;;;;;;;;;;;;;;;;;;3557211;27;19941;-46
2021/06/06 08:31:35;;;;;;;;;;;;;;;;;;3554280;27;20014;-46
2021/06/06 08:33:16;;;;;;;;;;;;;;;;;;3557165;27;20029;-45
2021/06/06 08:35:06;;;;;;;;;;;;;;;;;;3554402;27;19972;-45
2021/06/06 08:36:47;;;;;;;;;;;;;;;;;;3555599;27;19931;-46
2021/06/06 08:38:28;;;;;;;;;;;;;;;;;;3555194;27;20413;-46
2021/06/06 08:40:08;;;;;;;;;;;;;;;;;;3555947;27;20017;-45
2021/06/06 08:41:49;;;;;;;;;;;;;;;;;;3555256;27;19926;-45
2021/06/06 08:43:30;;;;;;;;;;;;;;;;;;3554130;27;20368;-45
2021/06/06 08:45:12;;;;;;;;;;;;;;;;;;3556049;27;19927;-46
2021/06/06 08:46:53;;;;;;;;;;;;;;;;;;3554208;27;20050;-45
2021/06/06 08:48:34;;;;;;;;;;;;;;;;;;3556567;27;19953;-45
2021/06/06 08:50:18;;;;;;;;;;;;;;;;;;3555065;27;19934;-49
2021/06/06 08:51:59;;;;;;;;;;;;;;;;;;3555914;27;19931;-47
2021/06/06 08:53:39;;;;;;;;;;;;;;;;;;3557171;27;19966;-46
2021/06/06 08:55:20;;;;;;;;;;;;;;;;;;3553822;27;19966;-45
2021/06/06 08:57:01;;;;;;;;;;;;;;;;;;3556556;27;19933;-46
2021/06/06 08:58:42;;;;;;;;;;;;;;;;;;3554136;27;19961;-44
2021/06/06 09:00:23;;;;;;;;;;;;;;;;;;3556843;27;19972;-45
2021/06/06 09:02:04;;;;;;;;;;;;;;;;;;3553522;27;20311;-46
2021/06/06 09:03:45;;;;;;;;;;;;;;;;;;3555820;27;20029;-46
2021/06/06 09:05:26;;;;;;;;;;;;;;;;;;3555595;27;20362;-46
2021/06/06 09:07:07;;;;;;;;;;;;;;;;;;3553931;27;19933;-45
2021/06/06 09:08:48;;;;;;;;;;;;;;;;;;3556254;27;20273;-46
2021/06/06 09:10:29;;;;;;;;;;;;;;;;;;3554189;27;20030;-46
2021/06/06 09:12:10;;;;;;;;;;;;;;;;;;3556470;27;19927;-48
2021/06/06 09:13:51;;;;;;;;;;;;;;;;;;3559813;27;19988;-47
2021/06/06 09:15:32;;;;;;;;;;;;;;;;;;3555113;27;19927;-47
2021/06/06 09:17:12;;;;;;;;;;;;;;;;;;3556848;27;19933;-46
2021/06/06 09:18:53;;;;;;;;;;;;;;;;;;3554606;27;19934;-45
2021/06/06 09:20:34;;;;;;;;;;;;;;;;;;3555484;27;20341;-45
2021/06/06 09:22:15;;;;;;;;;;;;;;;;;;3553927;27;19927;-47
2021/06/06 09:23:56;;;;;;;;;;;;;;;;;;3554782;27;20354;-46
2021/06/06 09:25:37;;;;;;;;;;;;;;;;;;3553698;27;19927;-47
2021/06/06 09:27:18;;;;;;;;;;;;;;;;;;3555519;27;20025;-49
2021/06/06 09:28:59;;;;;;;;;;;;;;;;;;3555878;27;20600;-46
2021/06/06 09:30:41;;;;;;;;;;;;;;;;;;3554369;27;19967;-46
2021/06/06 09:32:22;;;;;;;;;;;;;;;;;;3556682;27;20382;-46
2021/06/06 09:34:03;;;;;;;;;;;;;;;;;;3553380;27;20034;-45
2021/06/06 09:35:44;;;;;;;;;;;;;;;;;;3554945;27;19927;-46
2021/06/06 09:37:24;;;;;;;;;;;;;;;;;;3553897;27;19927;-47
2021/06/06 09:39:05;;;;;;;;;;;;;;;;;;3556327;27;19934;-47
2021/06/06 09:40:46;;;;;;;;;;;;;;;;;;3554495;27;20418;-47
2021/06/06 09:42:27;;;;;;;;;;;;;;;;;;3554977;27;19934;-46
2021/06/06 09:44:08;;;;;;;;;;;;;;;;;;3555240;27;20025;-47
2021/06/06 09:45:49;;;;;;;;;;;;;;;;;;3553404;27;19937;-46
2021/06/06 09:47:30;;;;;;;;;;;;;;;;;;3555855;27;20066;-46
2021/06/06 09:49:11;;;;;;;;;;;;;;;;;;3553594;27;19933;-47
2021/06/06 09:50:52;;;;;;;;;;;;;;;;;;3554753;27;20010;-48
2021/06/06 09:52:40;;;;;;;;;;;;;;;;;;3553805;27;20391;-45
2021/06/06 09:54:21;;;;;;;;;;;;;;;;;;3554895;27;19926;-46
2021/06/06 09:56:02;;;;;;;;;;;;;;;;;;3556517;27;19965;-47
2021/06/06 09:57:43;;;;;;;;;;;;;;;;;;3553918;27;19985;-47
2021/06/06 09:59:24;;;;;;;;;;;;;;;;;;3555131;27;20444;-47
2021/06/06 10:01:08;;;;;;;;;;;;;;;;;;3553360;27;19931;-47
2021/06/06 10:02:49;;;;;;;;;;;;;;;;;;3556008;27;20114;-47
2021/06/06 10:04:30;;;;;;;;;;;;;;;;;;3554364;27;19927;-46
2021/06/06 10:06:11;;;;;;;;;;;;;;;;;;3555811;27;19962;-48
2021/06/06 10:07:52;;;;;;;;;;;;;;;;;;3554888;27;19976;-45
2021/06/06 10:09:33;;;;;;;;;;;;;;;;;;3553047;27;19931;-46
2021/06/06 10:11:14;;;;;;;;;;;;;;;;;;3555046;27;20011;-46
2021/06/06 10:12:55;;;;;;;;;;;;;;;;;;3554116;27;20013;-45
2021/06/06 10:14:35;;;;;;;;;;;;;;;;;;3557388;27;19969;-46
2021/06/06 10:16:16;;;;;;;;;;;;;;;;;;3553724;27;19927;-47
2021/06/06 10:17:57;;;;;;;;;;;;;;;;;;3553370;27;20026;-46
2021/06/06 10:19:39;;;;;;;;;;;;;;;;;;3556278;27;20415;-48
2021/06/06 10:21:20;;;;;;;;;;;;;;;;;;3553021;27;19981;-46
2021/06/06 10:23:01;;;;;;;;;;;;;;;;;;3554254;27;20396;-46
2021/06/06 10:24:41;;;;;;;;;;;;;;;;;;3553142;27;20367;-46
2021/06/06 10:26:22;;;;;;;;;;;;;;;;;;3555635;27;19927;-46
2021/06/06 10:28:03;;;;;;;;;;;;;;;;;;3553309;27;19926;-46
2021/06/06 10:29:45;;;;;;;;;;;;;;;;;;3553478;27;20406;-46
2021/06/06 10:31:25;;;;;;;;;;;;;;;;;;3554295;27;19932;-47
2021/06/06 10:33:09;;;;;;;;;;;;;;;;;;3554838;27;19926;-45
2021/06/06 10:34:50;;;;;;;;;;;;;;;;;;3553194;27;19966;-47
2021/06/06 10:36:31;;;;;;;;;;;;;;;;;;3552950;27;20315;-46
2021/06/06 10:38:13;;;;;;;;;;;;;;;;;;3554214;27;20048;-46
2021/06/06 10:39:54;;;;;;;;;;;;;;;;;;3553521;27;20366;-45
2021/06/06 10:41:34;;;;;;;;;;;;;;;;;;3555302;27;20013;-45
2021/06/06 10:43:15;;;;;;;;;;;;;;;;;;3555361;27;20022;-47
2021/06/06 10:44:56;;;;;;;;;;;;;;;;;;3553069;27;19931;-45
2021/06/06 10:46:38;;;;;;;;;;;;;;;;;;3555462;27;20057;-45
2021/06/06 10:48:19;;;;;;;;;;;;;;;;;;3553741;27;19931;-46
2021/06/06 10:50:01;;;;;;;;;;;;;;;;;;3556126;27;19931;-46
2021/06/06 10:51:42;;;;;;;;;;;;;;;;;;3553084;27;19965;-46
2021/06/06 10:53:23;;;;;;;;;;;;;;;;;;3555462;27;20425;-45
2021/06/06 10:55:04;;;;;;;;;;;;;;;;;;3554195;27;20008;-44
2021/06/06 10:56:46;;;;;;;;;;;;;;;;;;3553329;27;19948;-46
2021/06/06 10:58:27;;;;;;;;;;;;;;;;;;3555451;27;20124;-47
2021/06/06 11:00:10;;;;;;;;;;;;;;;;;;3553074;27;20017;-47
2021/06/06 11:01:51;;;;;;;;;;;;;;;;;;3553849;27;20419;-44
2021/06/06 11:03:34;;;;;;;;;;;;;;;;;;3552726;27;19927;-43
2021/06/06 11:05:15;;;;;;;;;;;;;;;;;;3555577;27;19934;-46
2021/06/06 11:06:56;;;;;;;;;;;;;;;;;;3553343;27;19927;-45
2021/06/06 11:08:37;;;;;;;;;;;;;;;;;;3553440;27;19931;-45
2021/06/06 11:10:18;;;;;;;;;;;;;;;;;;3559020;27;20012;-43
2021/06/06 11:11:59;;;;;;;;;;;;;;;;;;3553446;27;19985;-44
2021/06/06 11:13:40;;;;;;;;;;;;;;;;;;3553787;27;20414;-45
2021/06/06 11:15:21;;;;;;;;;;;;;;;;;;3553250;27;19927;-44
2021/06/06 11:17:02;;;;;;;;;;;;;;;;;;3554883;27;19927;-44
2021/06/06 11:18:43;;;;;;;;;;;;;;;;;;3552964;27;20025;-45
2021/06/06 11:20:24;;;;;;;;;;;;;;;;;;3553673;27;20010;-46
2021/06/06 11:22:05;;;;;;;;;;;;;;;;;;3555651;27;20081;-45
2021/06/06 11:23:46;;;;;;;;;;;;;;;;;;3552513;27;19934;-43
2021/06/06 11:25:27;;;;;;;;;;;;;;;;;;3555582;27;19974;-44
2021/06/06 11:27:08;;;;;;;;;;;;;;;;;;3553532;27;19927;-44
2021/06/06 11:28:51;;;;;;;;;;;;;;;;;;3554209;27;19984;-44
2021/06/06 11:30:32;;;;;;;;;;;;;;;;;;3554820;27;19927;-43